sensor_id;sensor_type;location;lat;lon;timestamp;P1;durP1;ratioP1;P2;durP2;ratioP2
15063;SDS011;7631;52.088;5.088;2022-11-15T00:01:51;11.97;;;9.50;;
15063;SDS011;7631;52.088;5.088;2022-11-15T00:04:17;10.53;;;8.60;;
15063;SDS011;7631;52.088;5.088;2022-11-15T00:06:42;11.10;;;9.03;;
15063;SDS011;7631;52.088;5.088;2022-11-15T00:09:07;11.70;;;9.10;;
15063;SDS011;7631;52.088;5.088;2022-11-15T00:11:32;11.77;;;9.17;;
15063;SDS011;7631;52.088;5.088;2022-11-15T00:13:58;12.47;;;9.13;;
15063;SDS011;7631;52.088;5.088;2022-11-15T00:16:23;13.03;;;9.63;;
15063;SDS011;7631;52.088;5.088;2022-11-15T00:18:49;11.93;;;8.70;;
15063;SDS011;7631;52.088;5.088;2022-11-15T00:21:14;13.87;;;9.37;;
15063;SDS011;7631;52.088;5.088;2022-11-15T00:23:40;12.50;;;9.00;;
15063;SDS011;7631;52.088;5.088;2022-11-15T00:26:05;13.77;;;9.67;;
15063;SDS011;7631;52.088;5.088;2022-11-15T00:28:31;11.23;;;8.57;;
15063;SDS011;7631;52.088;5.088;2022-11-15T00:30:59;11.13;;;9.27;;
15063;SDS011;7631;52.088;5.088;2022-11-15T00:33:25;13.30;;;9.27;;
15063;SDS011;7631;52.088;5.088;2022-11-15T00:35:50;12.47;;;9.43;;
15063;SDS011;7631;52.088;5.088;2022-11-15T00:38:15;13.17;;;9.27;;
15063;SDS011;7631;52.088;5.088;2022-11-15T00:40:41;12.70;;;9.70;;
15063;SDS011;7631;52.088;5.088;2022-11-15T00:43:06;11.77;;;9.20;;
15063;SDS011;7631;52.088;5.088;2022-11-15T00:45:31;13.13;;;9.53;;
15063;SDS011;7631;52.088;5.088;2022-11-15T00:47:56;13.23;;;9.43;;
15063;SDS011;7631;52.088;5.088;2022-11-15T00:50:22;14.07;;;9.33;;
15063;SDS011;7631;52.088;5.088;2022-11-15T00:52:47;12.70;;;9.43;;
15063;SDS011;7631;52.088;5.088;2022-11-15T00:55:15;13.80;;;9.67;;
15063;SDS011;7631;52.088;5.088;2022-11-15T00:57:41;14.63;;;9.77;;
15063;SDS011;7631;52.088;5.088;2022-11-15T01:00:06;15.50;;;10.03;;
15063;SDS011;7631;52.088;5.088;2022-11-15T01:02:32;14.73;;;9.67;;
15063;SDS011;7631;52.088;5.088;2022-11-15T01:04:57;14.23;;;9.60;;
15063;SDS011;7631;52.088;5.088;2022-11-15T01:07:22;13.53;;;10.07;;
15063;SDS011;7631;52.088;5.088;2022-11-15T01:09:47;14.00;;;9.17;;
15063;SDS011;7631;52.088;5.088;2022-11-15T01:12:12;13.23;;;9.63;;
15063;SDS011;7631;52.088;5.088;2022-11-15T01:14:38;13.03;;;10.03;;
15063;SDS011;7631;52.088;5.088;2022-11-15T01:17:03;13.10;;;8.83;;
15063;SDS011;7631;52.088;5.088;2022-11-15T01:19:28;14.07;;;9.60;;
15063;SDS011;7631;52.088;5.088;2022-11-15T01:21:53;13.13;;;9.53;;
15063;SDS011;7631;52.088;5.088;2022-11-15T01:24:18;12.53;;;9.60;;
15063;SDS011;7631;52.088;5.088;2022-11-15T01:26:44;13.40;;;9.67;;
15063;SDS011;7631;52.088;5.088;2022-11-15T01:29:09;14.87;;;10.27;;
15063;SDS011;7631;52.088;5.088;2022-11-15T01:31:34;12.57;;;9.43;;
15063;SDS011;7631;52.088;5.088;2022-11-15T01:34:00;13.53;;;10.10;;
15063;SDS011;7631;52.088;5.088;2022-11-15T01:36:25;13.97;;;9.93;;
15063;SDS011;7631;52.088;5.088;2022-11-15T01:38:54;15.17;;;10.23;;
15063;SDS011;7631;52.088;5.088;2022-11-15T01:41:21;12.80;;;9.30;;
15063;SDS011;7631;52.088;5.088;2022-11-15T01:43:49;14.63;;;9.87;;
15063;SDS011;7631;52.088;5.088;2022-11-15T01:48:42;14.50;;;9.93;;
15063;SDS011;7631;52.088;5.088;2022-11-15T01:51:09;13.87;;;9.87;;
15063;SDS011;7631;52.088;5.088;2022-11-15T01:53:35;14.57;;;10.13;;
15063;SDS011;7631;52.088;5.088;2022-11-15T01:56:03;15.33;;;9.23;;
15063;SDS011;7631;52.088;5.088;2022-11-15T01:58:30;14.17;;;9.90;;
15063;SDS011;7631;52.088;5.088;2022-11-15T02:00:56;13.13;;;9.53;;
15063;SDS011;7631;52.088;5.088;2022-11-15T02:03:21;13.77;;;9.67;;
15063;SDS011;7631;52.088;5.088;2022-11-15T02:05:47;13.27;;;9.67;;
15063;SDS011;7631;52.088;5.088;2022-11-15T02:08:13;15.40;;;10.07;;
15063;SDS011;7631;52.088;5.088;2022-11-15T02:10:45;14.03;;;9.60;;
15063;SDS011;7631;52.088;5.088;2022-11-15T02:13:10;13.43;;;9.63;;
15063;SDS011;7631;52.088;5.088;2022-11-15T02:15:38;14.10;;;9.40;;
15063;SDS011;7631;52.088;5.088;2022-11-15T02:25:37;12.93;;;9.50;;
15063;SDS011;7631;52.088;5.088;2022-11-15T02:33:02;15.17;;;10.40;;
15063;SDS011;7631;52.088;5.088;2022-11-15T02:38:31;14.30;;;9.70;;
15063;SDS011;7631;52.088;5.088;2022-11-15T02:41:01;12.53;;;9.70;;
15063;SDS011;7631;52.088;5.088;2022-11-15T02:43:37;14.90;;;9.67;;
15063;SDS011;7631;52.088;5.088;2022-11-15T02:46:31;12.67;;;9.23;;
15063;SDS011;7631;52.088;5.088;2022-11-15T02:49:16;13.17;;;9.40;;
15063;SDS011;7631;52.088;5.088;2022-11-15T02:51:42;13.87;;;9.60;;
15063;SDS011;7631;52.088;5.088;2022-11-15T02:54:11;13.50;;;9.33;;
15063;SDS011;7631;52.088;5.088;2022-11-15T02:56:37;13.67;;;10.20;;
15063;SDS011;7631;52.088;5.088;2022-11-15T02:59:12;15.40;;;10.03;;
15063;SDS011;7631;52.088;5.088;2022-11-15T03:06:55;14.63;;;9.87;;
15063;SDS011;7631;52.088;5.088;2022-11-15T03:11:56;13.87;;;10.40;;
15063;SDS011;7631;52.088;5.088;2022-11-15T03:14:29;12.60;;;9.27;;
15063;SDS011;7631;52.088;5.088;2022-11-15T03:19:46;17.20;;;10.80;;
15063;SDS011;7631;52.088;5.088;2022-11-15T03:22:14;14.07;;;9.67;;
15063;SDS011;7631;52.088;5.088;2022-11-15T03:24:40;14.50;;;10.23;;
15063;SDS011;7631;52.088;5.088;2022-11-15T03:27:08;13.30;;;9.57;;
15063;SDS011;7631;52.088;5.088;2022-11-15T03:29:36;13.87;;;9.23;;
15063;SDS011;7631;52.088;5.088;2022-11-15T03:37:11;14.63;;;9.60;;
15063;SDS011;7631;52.088;5.088;2022-11-15T03:39:39;11.00;;;8.97;;
15063;SDS011;7631;52.088;5.088;2022-11-15T03:44:53;14.23;;;10.17;;
15063;SDS011;7631;52.088;5.088;2022-11-15T03:50:04;13.37;;;9.97;;
15063;SDS011;7631;52.088;5.088;2022-11-15T03:52:32;14.57;;;10.20;;
15063;SDS011;7631;52.088;5.088;2022-11-15T03:54:58;12.80;;;9.77;;
15063;SDS011;7631;52.088;5.088;2022-11-15T03:57:25;13.53;;;9.73;;
15063;SDS011;7631;52.088;5.088;2022-11-15T03:59:50;15.07;;;10.57;;
15063;SDS011;7631;52.088;5.088;2022-11-15T04:02:15;12.60;;;9.60;;
15063;SDS011;7631;52.088;5.088;2022-11-15T04:04:40;13.23;;;9.70;;
15063;SDS011;7631;52.088;5.088;2022-11-15T04:07:06;12.73;;;9.23;;
15063;SDS011;7631;52.088;5.088;2022-11-15T04:09:31;12.67;;;10.03;;
15063;SDS011;7631;52.088;5.088;2022-11-15T04:11:56;14.77;;;9.97;;
15063;SDS011;7631;52.088;5.088;2022-11-15T04:14:21;13.43;;;9.77;;
15063;SDS011;7631;52.088;5.088;2022-11-15T04:16:46;13.60;;;9.23;;
15063;SDS011;7631;52.088;5.088;2022-11-15T04:19:11;12.13;;;9.30;;
15063;SDS011;7631;52.088;5.088;2022-11-15T04:21:55;12.27;;;9.03;;
15063;SDS011;7631;52.088;5.088;2022-11-15T04:24:39;14.10;;;9.60;;
15063;SDS011;7631;52.088;5.088;2022-11-15T04:27:04;13.60;;;8.80;;
15063;SDS011;7631;52.088;5.088;2022-11-15T04:29:30;12.83;;;8.93;;
15063;SDS011;7631;52.088;5.088;2022-11-15T04:31:59;10.47;;;8.00;;
15063;SDS011;7631;52.088;5.088;2022-11-15T04:34:24;10.53;;;8.80;;
15063;SDS011;7631;52.088;5.088;2022-11-15T04:36:49;12.77;;;9.27;;
15063;SDS011;7631;52.088;5.088;2022-11-15T04:39:33;12.10;;;8.93;;
15063;SDS011;7631;52.088;5.088;2022-11-15T04:41:58;11.03;;;8.73;;
15063;SDS011;7631;52.088;5.088;2022-11-15T04:44:23;11.33;;;8.93;;
15063;SDS011;7631;52.088;5.088;2022-11-15T04:46:49;11.73;;;8.50;;
15063;SDS011;7631;52.088;5.088;2022-11-15T04:49:14;10.37;;;8.40;;
15063;SDS011;7631;52.088;5.088;2022-11-15T04:51:39;9.53;;;8.23;;
15063;SDS011;7631;52.088;5.088;2022-11-15T04:54:04;11.17;;;8.87;;
15063;SDS011;7631;52.088;5.088;2022-11-15T04:56:29;9.53;;;7.70;;
15063;SDS011;7631;52.088;5.088;2022-11-15T04:58:54;12.13;;;8.13;;
15063;SDS011;7631;52.088;5.088;2022-11-15T05:01:20;10.67;;;8.03;;
15063;SDS011;7631;52.088;5.088;2022-11-15T05:03:45;11.37;;;8.77;;
15063;SDS011;7631;52.088;5.088;2022-11-15T05:06:29;9.97;;;8.30;;
15063;SDS011;7631;52.088;5.088;2022-11-15T05:08:54;10.53;;;8.13;;
15063;SDS011;7631;52.088;5.088;2022-11-15T05:11:20;10.03;;;8.00;;
15063;SDS011;7631;52.088;5.088;2022-11-15T05:13:46;11.37;;;8.77;;
15063;SDS011;7631;52.088;5.088;2022-11-15T05:16:11;10.80;;;8.10;;
15063;SDS011;7631;52.088;5.088;2022-11-15T05:18:36;9.73;;;8.63;;
15063;SDS011;7631;52.088;5.088;2022-11-15T05:21:05;11.90;;;8.70;;
15063;SDS011;7631;52.088;5.088;2022-11-15T05:23:30;9.27;;;8.17;;
15063;SDS011;7631;52.088;5.088;2022-11-15T05:25:58;9.83;;;7.97;;
15063;SDS011;7631;52.088;5.088;2022-11-15T05:28:24;8.07;;;6.93;;
15063;SDS011;7631;52.088;5.088;2022-11-15T05:30:49;9.73;;;8.03;;
15063;SDS011;7631;52.088;5.088;2022-11-15T05:33:14;10.20;;;8.27;;
15063;SDS011;7631;52.088;5.088;2022-11-15T05:35:40;9.50;;;7.40;;
15063;SDS011;7631;52.088;5.088;2022-11-15T05:38:06;9.30;;;7.60;;
15063;SDS011;7631;52.088;5.088;2022-11-15T05:40:32;9.63;;;7.63;;
15063;SDS011;7631;52.088;5.088;2022-11-15T05:42:58;9.20;;;7.50;;
15063;SDS011;7631;52.088;5.088;2022-11-15T05:45:25;10.87;;;7.57;;
15063;SDS011;7631;52.088;5.088;2022-11-15T05:47:51;8.83;;;7.30;;
15063;SDS011;7631;52.088;5.088;2022-11-15T05:50:17;11.03;;;8.23;;
15063;SDS011;7631;52.088;5.088;2022-11-15T05:52:43;8.93;;;7.20;;
15063;SDS011;7631;52.088;5.088;2022-11-15T05:55:09;8.60;;;7.00;;
15063;SDS011;7631;52.088;5.088;2022-11-15T05:57:34;9.53;;;7.70;;
15063;SDS011;7631;52.088;5.088;2022-11-15T05:59:59;9.63;;;7.87;;
15063;SDS011;7631;52.088;5.088;2022-11-15T06:02:25;10.47;;;7.37;;
15063;SDS011;7631;52.088;5.088;2022-11-15T06:04:50;8.30;;;7.43;;
15063;SDS011;7631;52.088;5.088;2022-11-15T06:07:15;8.80;;;7.37;;
15063;SDS011;7631;52.088;5.088;2022-11-15T06:09:40;9.30;;;7.57;;
15063;SDS011;7631;52.088;5.088;2022-11-15T06:12:06;7.73;;;6.73;;
15063;SDS011;7631;52.088;5.088;2022-11-15T06:14:31;7.63;;;6.77;;
15063;SDS011;7631;52.088;5.088;2022-11-15T06:16:56;9.07;;;7.33;;
15063;SDS011;7631;52.088;5.088;2022-11-15T06:19:21;8.67;;;6.60;;
15063;SDS011;7631;52.088;5.088;2022-11-15T06:21:47;8.70;;;7.17;;
15063;SDS011;7631;52.088;5.088;2022-11-15T06:24:12;7.80;;;7.00;;
15063;SDS011;7631;52.088;5.088;2022-11-15T06:26:37;7.83;;;6.73;;
15063;SDS011;7631;52.088;5.088;2022-11-15T06:29:03;7.50;;;6.70;;
15063;SDS011;7631;52.088;5.088;2022-11-15T06:31:29;7.83;;;6.97;;
15063;SDS011;7631;52.088;5.088;2022-11-15T06:33:54;8.73;;;7.00;;
15063;SDS011;7631;52.088;5.088;2022-11-15T06:36:19;7.77;;;6.57;;
15063;SDS011;7631;52.088;5.088;2022-11-15T06:38:45;8.83;;;7.40;;
15063;SDS011;7631;52.088;5.088;2022-11-15T06:41:11;8.27;;;7.07;;
15063;SDS011;7631;52.088;5.088;2022-11-15T06:43:37;7.33;;;6.40;;
15063;SDS011;7631;52.088;5.088;2022-11-15T06:46:02;8.23;;;6.77;;
15063;SDS011;7631;52.088;5.088;2022-11-15T06:48:28;7.27;;;6.47;;
15063;SDS011;7631;52.088;5.088;2022-11-15T06:50:55;9.70;;;6.83;;
15063;SDS011;7631;52.088;5.088;2022-11-15T06:53:20;7.20;;;6.50;;
15063;SDS011;7631;52.088;5.088;2022-11-15T06:55:46;7.87;;;6.17;;
15063;SDS011;7631;52.088;5.088;2022-11-15T06:58:11;9.23;;;7.10;;
15063;SDS011;7631;52.088;5.088;2022-11-15T07:00:36;8.97;;;7.10;;
15063;SDS011;7631;52.088;5.088;2022-11-15T07:03:01;8.40;;;7.00;;
15063;SDS011;7631;52.088;5.088;2022-11-15T07:05:27;7.00;;;5.97;;
15063;SDS011;7631;52.088;5.088;2022-11-15T07:07:53;7.73;;;6.57;;
15063;SDS011;7631;52.088;5.088;2022-11-15T07:10:18;7.50;;;6.70;;
15063;SDS011;7631;52.088;5.088;2022-11-15T07:12:46;8.00;;;6.43;;
15063;SDS011;7631;52.088;5.088;2022-11-15T07:15:11;7.53;;;6.57;;
15063;SDS011;7631;52.088;5.088;2022-11-15T07:17:36;7.43;;;6.63;;
15063;SDS011;7631;52.088;5.088;2022-11-15T07:20:02;7.37;;;6.37;;
15063;SDS011;7631;52.088;5.088;2022-11-15T07:22:27;7.30;;;6.33;;
15063;SDS011;7631;52.088;5.088;2022-11-15T07:24:52;7.30;;;6.27;;
15063;SDS011;7631;52.088;5.088;2022-11-15T07:27:17;8.97;;;6.33;;
15063;SDS011;7631;52.088;5.088;2022-11-15T07:29:43;6.93;;;6.17;;
15063;SDS011;7631;52.088;5.088;2022-11-15T07:32:09;7.10;;;6.40;;
15063;SDS011;7631;52.088;5.088;2022-11-15T07:34:34;6.83;;;6.10;;
15063;SDS011;7631;52.088;5.088;2022-11-15T07:36:59;6.43;;;5.83;;
15063;SDS011;7631;52.088;5.088;2022-11-15T07:39:24;6.83;;;5.93;;
15063;SDS011;7631;52.088;5.088;2022-11-15T07:41:49;8.00;;;6.17;;
15063;SDS011;7631;52.088;5.088;2022-11-15T07:44:35;6.87;;;5.97;;
15063;SDS011;7631;52.088;5.088;2022-11-15T07:47:00;6.67;;;5.97;;
15063;SDS011;7631;52.088;5.088;2022-11-15T07:49:25;7.17;;;6.33;;
15063;SDS011;7631;52.088;5.088;2022-11-15T07:51:50;6.73;;;5.77;;
15063;SDS011;7631;52.088;5.088;2022-11-15T07:54:15;6.83;;;6.13;;
15063;SDS011;7631;52.088;5.088;2022-11-15T07:56:40;6.17;;;5.47;;
15063;SDS011;7631;52.088;5.088;2022-11-15T07:59:06;7.03;;;6.17;;
15063;SDS011;7631;52.088;5.088;2022-11-15T08:01:31;6.87;;;6.17;;
15063;SDS011;7631;52.088;5.088;2022-11-15T08:03:56;7.87;;;6.00;;
15063;SDS011;7631;52.088;5.088;2022-11-15T08:06:21;6.57;;;5.53;;
15063;SDS011;7631;52.088;5.088;2022-11-15T08:08:47;6.50;;;5.80;;
15063;SDS011;7631;52.088;5.088;2022-11-15T08:11:12;6.43;;;5.83;;
15063;SDS011;7631;52.088;5.088;2022-11-15T08:13:37;5.90;;;5.30;;
15063;SDS011;7631;52.088;5.088;2022-11-15T08:16:03;6.30;;;5.10;;
15063;SDS011;7631;52.088;5.088;2022-11-15T08:18:30;7.10;;;5.70;;
15063;SDS011;7631;52.088;5.088;2022-11-15T08:20:58;6.90;;;5.70;;
15063;SDS011;7631;52.088;5.088;2022-11-15T08:23:23;6.63;;;5.77;;
15063;SDS011;7631;52.088;5.088;2022-11-15T08:25:49;6.10;;;5.40;;
15063;SDS011;7631;52.088;5.088;2022-11-15T08:28:15;6.43;;;5.70;;
15063;SDS011;7631;52.088;5.088;2022-11-15T08:30:41;7.00;;;5.90;;
15063;SDS011;7631;52.088;5.088;2022-11-15T08:33:10;7.80;;;5.40;;
15063;SDS011;7631;52.088;5.088;2022-11-15T08:35:35;6.07;;;5.00;;
15063;SDS011;7631;52.088;5.088;2022-11-15T08:38:00;5.47;;;4.90;;
15063;SDS011;7631;52.088;5.088;2022-11-15T08:40:25;6.20;;;5.17;;
15063;SDS011;7631;52.088;5.088;2022-11-15T08:42:51;7.17;;;5.77;;
15063;SDS011;7631;52.088;5.088;2022-11-15T08:45:17;6.70;;;5.60;;
15063;SDS011;7631;52.088;5.088;2022-11-15T08:47:42;6.33;;;5.73;;
15063;SDS011;7631;52.088;5.088;2022-11-15T08:50:07;5.50;;;4.77;;
15063;SDS011;7631;52.088;5.088;2022-11-15T08:52:33;6.00;;;5.40;;
15063;SDS011;7631;52.088;5.088;2022-11-15T08:54:58;5.87;;;5.00;;
15063;SDS011;7631;52.088;5.088;2022-11-15T08:57:23;6.67;;;5.40;;
15063;SDS011;7631;52.088;5.088;2022-11-15T08:59:48;6.37;;;5.23;;
15063;SDS011;7631;52.088;5.088;2022-11-15T09:02:14;6.07;;;5.03;;
15063;SDS011;7631;52.088;5.088;2022-11-15T09:04:42;7.53;;;5.03;;
15063;SDS011;7631;52.088;5.088;2022-11-15T09:07:11;5.70;;;5.07;;
15063;SDS011;7631;52.088;5.088;2022-11-15T09:09:36;6.23;;;4.70;;
15063;SDS011;7631;52.088;5.088;2022-11-15T09:12:02;5.73;;;4.80;;
15063;SDS011;7631;52.088;5.088;2022-11-15T09:14:27;6.30;;;5.00;;
15063;SDS011;7631;52.088;5.088;2022-11-15T09:16:52;5.57;;;4.77;;
15063;SDS011;7631;52.088;5.088;2022-11-15T09:19:18;5.63;;;4.50;;
15063;SDS011;7631;52.088;5.088;2022-11-15T09:21:43;5.20;;;4.70;;
15063;SDS011;7631;52.088;5.088;2022-11-15T09:24:08;5.87;;;4.77;;
15063;SDS011;7631;52.088;5.088;2022-11-15T09:26:33;7.57;;;5.00;;
15063;SDS011;7631;52.088;5.088;2022-11-15T09:28:58;5.53;;;4.93;;
15063;SDS011;7631;52.088;5.088;2022-11-15T09:31:24;5.60;;;4.60;;
15063;SDS011;7631;52.088;5.088;2022-11-15T09:33:49;5.73;;;4.20;;
15063;SDS011;7631;52.088;5.088;2022-11-15T09:36:15;5.20;;;4.67;;
15063;SDS011;7631;52.088;5.088;2022-11-15T09:38:41;6.73;;;4.30;;
15063;SDS011;7631;52.088;5.088;2022-11-15T09:51:26;4.90;;;4.27;;
15063;SDS011;7631;52.088;5.088;2022-11-15T09:53:55;5.77;;;4.27;;
15063;SDS011;7631;52.088;5.088;2022-11-15T09:56:22;4.93;;;4.43;;
15063;SDS011;7631;52.088;5.088;2022-11-15T10:01:36;4.40;;;4.00;;
15063;SDS011;7631;52.088;5.088;2022-11-15T10:03:58;5.80;;;4.40;;
15063;SDS011;7631;52.088;5.088;2022-11-15T10:06:24;4.97;;;4.10;;
15063;SDS011;7631;52.088;5.088;2022-11-15T10:11:22;4.77;;;4.27;;
15063;SDS011;7631;52.088;5.088;2022-11-15T10:13:49;5.00;;;4.53;;
15063;SDS011;7631;52.088;5.088;2022-11-15T10:16:25;5.70;;;4.27;;
15063;SDS011;7631;52.088;5.088;2022-11-15T10:24:12;4.20;;;3.73;;
15063;SDS011;7631;52.088;5.088;2022-11-15T10:26:37;5.70;;;4.37;;
15063;SDS011;7631;52.088;5.088;2022-11-15T10:29:03;5.07;;;4.13;;
15063;SDS011;7631;52.088;5.088;2022-11-15T10:31:28;5.30;;;4.40;;
15063;SDS011;7631;52.088;5.088;2022-11-15T10:34:09;5.03;;;4.20;;
15063;SDS011;7631;52.088;5.088;2022-11-15T10:36:36;5.33;;;3.93;;
15063;SDS011;7631;52.088;5.088;2022-11-15T10:39:01;5.03;;;4.30;;
15063;SDS011;7631;52.088;5.088;2022-11-15T10:44:28;4.13;;;3.73;;
15063;SDS011;7631;52.088;5.088;2022-11-15T10:46:47;3.73;;;3.43;;
15063;SDS011;7631;52.088;5.088;2022-11-15T10:49:17;4.07;;;3.67;;
15063;SDS011;7631;52.088;5.088;2022-11-15T10:51:45;5.07;;;3.83;;
15063;SDS011;7631;52.088;5.088;2022-11-15T10:54:11;4.27;;;3.50;;
15063;SDS011;7631;52.088;5.088;2022-11-15T10:56:38;5.13;;;4.03;;
15063;SDS011;7631;52.088;5.088;2022-11-15T10:59:04;4.30;;;3.30;;
15063;SDS011;7631;52.088;5.088;2022-11-15T11:01:29;4.77;;;3.47;;
15063;SDS011;7631;52.088;5.088;2022-11-15T11:04:02;3.93;;;3.40;;
15063;SDS011;7631;52.088;5.088;2022-11-15T11:06:28;3.73;;;3.27;;
15063;SDS011;7631;52.088;5.088;2022-11-15T11:08:58;3.80;;;3.40;;
15063;SDS011;7631;52.088;5.088;2022-11-15T11:11:23;4.77;;;3.17;;
15063;SDS011;7631;52.088;5.088;2022-11-15T11:13:49;4.07;;;3.30;;
15063;SDS011;7631;52.088;5.088;2022-11-15T11:21:09;5.30;;;3.43;;
15063;SDS011;7631;52.088;5.088;2022-11-15T11:26:31;3.80;;;2.67;;
15063;SDS011;7631;52.088;5.088;2022-11-15T11:29:12;2.83;;;2.60;;
15063;SDS011;7631;52.088;5.088;2022-11-15T11:31:42;3.13;;;2.83;;
15063;SDS011;7631;52.088;5.088;2022-11-15T11:36:49;3.17;;;2.57;;
15063;SDS011;7631;52.088;5.088;2022-11-15T11:45:05;2.97;;;2.60;;
15063;SDS011;7631;52.088;5.088;2022-11-15T11:47:39;2.73;;;2.50;;
15063;SDS011;7631;52.088;5.088;2022-11-15T11:50:15;3.90;;;2.70;;
15063;SDS011;7631;52.088;5.088;2022-11-15T11:53:03;2.80;;;2.13;;
15063;SDS011;7631;52.088;5.088;2022-11-15T11:55:29;2.77;;;2.53;;
15063;SDS011;7631;52.088;5.088;2022-11-15T11:58:03;3.57;;;2.40;;
15063;SDS011;7631;52.088;5.088;2022-11-15T12:00:29;2.37;;;2.10;;
15063;SDS011;7631;52.088;5.088;2022-11-15T12:03:11;3.40;;;2.30;;
15063;SDS011;7631;52.088;5.088;2022-11-15T12:05:46;2.87;;;2.33;;
15063;SDS011;7631;52.088;5.088;2022-11-15T12:11:15;2.87;;;2.20;;
15063;SDS011;7631;52.088;5.088;2022-11-15T12:13:42;2.00;;;1.87;;
15063;SDS011;7631;52.088;5.088;2022-11-15T12:16:17;2.37;;;2.00;;
15063;SDS011;7631;52.088;5.088;2022-11-15T12:18:47;2.77;;;2.20;;
15063;SDS011;7631;52.088;5.088;2022-11-15T12:21:15;2.33;;;1.70;;
15063;SDS011;7631;52.088;5.088;2022-11-15T12:23:49;2.10;;;1.70;;
15063;SDS011;7631;52.088;5.088;2022-11-15T12:26:18;2.90;;;2.13;;
15063;SDS011;7631;52.088;5.088;2022-11-15T12:28:46;2.30;;;1.93;;
15063;SDS011;7631;52.088;5.088;2022-11-15T12:31:21;3.10;;;1.70;;
15063;SDS011;7631;52.088;5.088;2022-11-15T12:33:47;4.50;;;1.83;;
15063;SDS011;7631;52.088;5.088;2022-11-15T12:38:51;2.17;;;1.50;;
15063;SDS011;7631;52.088;5.088;2022-11-15T12:41:18;2.07;;;1.60;;
15063;SDS011;7631;52.088;5.088;2022-11-15T12:43:45;2.27;;;1.40;;
15063;SDS011;7631;52.088;5.088;2022-11-15T12:48:55;2.10;;;1.70;;
15063;SDS011;7631;52.088;5.088;2022-11-15T12:51:22;2.17;;;1.80;;
15063;SDS011;7631;52.088;5.088;2022-11-15T13:04:42;2.57;;;1.57;;
15063;SDS011;7631;52.088;5.088;2022-11-15T13:07:07;3.30;;;1.60;;
15063;SDS011;7631;52.088;5.088;2022-11-15T13:09:53;3.57;;;1.60;;
15063;SDS011;7631;52.088;5.088;2022-11-15T13:19:48;2.30;;;1.40;;
15063;SDS011;7631;52.088;5.088;2022-11-15T13:22:17;2.10;;;1.47;;
15063;SDS011;7631;52.088;5.088;2022-11-15T13:25:01;1.60;;;1.20;;
15063;SDS011;7631;52.088;5.088;2022-11-15T13:27:29;2.30;;;1.40;;
15063;SDS011;7631;52.088;5.088;2022-11-15T13:29:56;1.63;;;1.40;;
15063;SDS011;7631;52.088;5.088;2022-11-15T13:32:21;2.00;;;1.37;;
15063;SDS011;7631;52.088;5.088;2022-11-15T13:34:47;1.40;;;1.20;;
15063;SDS011;7631;52.088;5.088;2022-11-15T13:39:48;2.67;;;1.30;;
15063;SDS011;7631;52.088;5.088;2022-11-15T13:42:17;1.47;;;1.30;;
15063;SDS011;7631;52.088;5.088;2022-11-15T13:44:55;1.93;;;1.37;;
15063;SDS011;7631;52.088;5.088;2022-11-15T13:47:21;1.70;;;1.10;;
15063;SDS011;7631;52.088;5.088;2022-11-15T13:49:46;1.73;;;1.20;;
15063;SDS011;7631;52.088;5.088;2022-11-15T13:52:12;1.13;;;0.90;;
15063;SDS011;7631;52.088;5.088;2022-11-15T13:57:28;2.10;;;1.50;;
15063;SDS011;7631;52.088;5.088;2022-11-15T13:59:59;1.77;;;1.20;;
15063;SDS011;7631;52.088;5.088;2022-11-15T14:02:26;2.40;;;1.07;;
15063;SDS011;7631;52.088;5.088;2022-11-15T14:04:54;2.00;;;1.30;;
15063;SDS011;7631;52.088;5.088;2022-11-15T14:07:21;1.17;;;0.90;;
15063;SDS011;7631;52.088;5.088;2022-11-15T14:09:47;1.80;;;1.07;;
15063;SDS011;7631;52.088;5.088;2022-11-15T14:12:23;1.33;;;1.00;;
15063;SDS011;7631;52.088;5.088;2022-11-15T14:14:49;1.70;;;0.97;;
15063;SDS011;7631;52.088;5.088;2022-11-15T14:19:55;1.50;;;1.10;;
15063;SDS011;7631;52.088;5.088;2022-11-15T14:22:29;1.77;;;1.10;;
15063;SDS011;7631;52.088;5.088;2022-11-15T14:27:30;1.60;;;1.03;;
15063;SDS011;7631;52.088;5.088;2022-11-15T14:29:56;2.23;;;1.20;;
15063;SDS011;7631;52.088;5.088;2022-11-15T14:34:47;1.87;;;1.13;;
15063;SDS011;7631;52.088;5.088;2022-11-15T14:39:43;2.17;;;1.13;;
15063;SDS011;7631;52.088;5.088;2022-11-15T14:42:09;1.53;;;1.10;;
15063;SDS011;7631;52.088;5.088;2022-11-15T14:44:34;1.80;;;1.00;;
15063;SDS011;7631;52.088;5.088;2022-11-15T14:46:59;1.93;;;1.20;;
15063;SDS011;7631;52.088;5.088;2022-11-15T14:49:24;1.33;;;0.90;;
15063;SDS011;7631;52.088;5.088;2022-11-15T14:51:50;2.20;;;1.33;;
15063;SDS011;7631;52.088;5.088;2022-11-15T14:54:15;1.87;;;1.20;;
15063;SDS011;7631;52.088;5.088;2022-11-15T14:56:40;2.40;;;1.27;;
15063;SDS011;7631;52.088;5.088;2022-11-15T14:59:07;2.07;;;1.00;;
15063;SDS011;7631;52.088;5.088;2022-11-15T15:01:36;1.50;;;1.13;;
15063;SDS011;7631;52.088;5.088;2022-11-15T15:04:01;2.47;;;1.07;;
15063;SDS011;7631;52.088;5.088;2022-11-15T15:06:26;3.33;;;1.20;;
15063;SDS011;7631;52.088;5.088;2022-11-15T15:08:51;1.60;;;0.87;;
15063;SDS011;7631;52.088;5.088;2022-11-15T15:11:20;1.90;;;1.00;;
15063;SDS011;7631;52.088;5.088;2022-11-15T15:13:46;1.30;;;0.90;;
15063;SDS011;7631;52.088;5.088;2022-11-15T15:16:11;2.00;;;1.10;;
15063;SDS011;7631;52.088;5.088;2022-11-15T15:18:36;3.07;;;1.20;;
15063;SDS011;7631;52.088;5.088;2022-11-15T15:21:01;1.60;;;0.90;;
15063;SDS011;7631;52.088;5.088;2022-11-15T15:23:32;1.40;;;1.00;;
15063;SDS011;7631;52.088;5.088;2022-11-15T15:25:58;2.23;;;1.00;;
15063;SDS011;7631;52.088;5.088;2022-11-15T15:28:23;2.83;;;1.30;;
15063;SDS011;7631;52.088;5.088;2022-11-15T15:30:48;2.10;;;1.23;;
15063;SDS011;7631;52.088;5.088;2022-11-15T15:33:14;2.80;;;1.20;;
15063;SDS011;7631;52.088;5.088;2022-11-15T15:35:42;2.47;;;1.13;;
15063;SDS011;7631;52.088;5.088;2022-11-15T15:38:11;2.50;;;1.20;;
15063;SDS011;7631;52.088;5.088;2022-11-15T15:40:36;1.60;;;1.10;;
15063;SDS011;7631;52.088;5.088;2022-11-15T15:43:02;2.17;;;1.20;;
15063;SDS011;7631;52.088;5.088;2022-11-15T15:45:27;1.33;;;1.10;;
15063;SDS011;7631;52.088;5.088;2022-11-15T15:47:54;3.40;;;1.17;;
15063;SDS011;7631;52.088;5.088;2022-11-15T15:52:48;1.93;;;1.10;;
15063;SDS011;7631;52.088;5.088;2022-11-15T15:55:14;1.90;;;0.97;;
15063;SDS011;7631;52.088;5.088;2022-11-15T15:57:39;1.47;;;1.00;;
15063;SDS011;7631;52.088;5.088;2022-11-15T16:00:05;2.03;;;1.00;;
15063;SDS011;7631;52.088;5.088;2022-11-15T16:02:30;1.77;;;0.97;;
15063;SDS011;7631;52.088;5.088;2022-11-15T16:04:55;1.87;;;1.03;;
15063;SDS011;7631;52.088;5.088;2022-11-15T16:07:21;1.83;;;1.10;;
15063;SDS011;7631;52.088;5.088;2022-11-15T16:09:49;1.80;;;1.10;;
15063;SDS011;7631;52.088;5.088;2022-11-15T16:12:28;2.40;;;1.00;;
15063;SDS011;7631;52.088;5.088;2022-11-15T16:14:55;1.67;;;1.10;;
15063;SDS011;7631;52.088;5.088;2022-11-15T16:17:21;2.67;;;0.90;;
15063;SDS011;7631;52.088;5.088;2022-11-15T16:19:47;3.53;;;1.30;;
15063;SDS011;7631;52.088;5.088;2022-11-15T16:22:13;1.47;;;1.00;;
15063;SDS011;7631;52.088;5.088;2022-11-15T16:24:38;1.57;;;0.93;;
15063;SDS011;7631;52.088;5.088;2022-11-15T16:27:03;2.83;;;1.27;;
15063;SDS011;7631;52.088;5.088;2022-11-15T16:29:29;1.80;;;1.07;;
15063;SDS011;7631;52.088;5.088;2022-11-15T16:31:54;2.23;;;0.97;;
15063;SDS011;7631;52.088;5.088;2022-11-15T16:34:19;1.57;;;1.10;;
15063;SDS011;7631;52.088;5.088;2022-11-15T16:36:49;1.60;;;0.93;;
15063;SDS011;7631;52.088;5.088;2022-11-15T16:39:14;1.33;;;0.80;;
15063;SDS011;7631;52.088;5.088;2022-11-15T16:41:43;1.80;;;1.10;;
15063;SDS011;7631;52.088;5.088;2022-11-15T16:44:11;2.20;;;1.10;;
15063;SDS011;7631;52.088;5.088;2022-11-15T16:46:36;1.37;;;1.00;;
15063;SDS011;7631;52.088;5.088;2022-11-15T16:49:02;2.07;;;0.80;;
15063;SDS011;7631;52.088;5.088;2022-11-15T16:51:28;1.37;;;1.10;;
15063;SDS011;7631;52.088;5.088;2022-11-15T16:53:53;2.20;;;1.10;;
15063;SDS011;7631;52.088;5.088;2022-11-15T16:58:46;1.10;;;0.77;;
15063;SDS011;7631;52.088;5.088;2022-11-15T17:01:19;2.57;;;0.90;;